Aérodrome :
LOGIN :

S'inscrire | Disclaimer

   EN    FR    IT 

 










Légende :    VFR   VFR Marginal   IFR   IFR Intensif   IFR Très Intensif
Visi : 
Plafond : 
>= 8 km
>= 3000ft
5 à 8 km
1000 à 3000 ft
1500m à 5 km
500 à 1000 ft
800 à 1500m
200 à 500 ft
< 800m
< 200 ft
Symboles :   Orages  Brouillard  Fortes neiges  Fortes précipitations  Vent > 20 kt
SIGMETs :   Divers  Orages  Givrage  Turbulence  Onde Orograph.  Cendres Volcan.






- Altitude de l'aérodrome : 650 ft
- Code IATA : ZJI


LSZL - Locarno

DERNIER METAR :
  • 131920Z AUTO 05004KT 9999NDV FEW220 22/19 Q1015 RMK

METARs EXPIRÉS :
  • 131850Z AUTO 13003KT 100V170 9999NDV SCT160 24/20 Q1015 RMK
  • 131820Z AUTO 00000KT 9999NDV BKN160 24/20 Q1015 RMK
  • 131750Z AUTO VRB02KT 9999NDV BKN160 25/21 Q1014 RMK
  • 131720Z AUTO VRB01KT 9999NDV FEW160 25/20 Q1014 RMK

TAF TAF LSZL
Valide du 13 à 18h jusqu'au 14 à 03h UTC


131725Z 1318/1403 VRB03KT 9999 FEW080
PROB40
TEMPO 1318/1403 25015G30KT 4000 TSRA SCT050CB



MET'MAP, la Météo Aéronautique d'un coup d'oeil ! - Copyright ORBIFLY Décembre 2007 - Disclaimer

ORBIFLY MET'MAP TEAM :

Programmation & Développement : Alexandra Zaïnal
Sur une idée originale de : Baudouin d'Aumeries
Assistance à la programmation : Marc-Olivier Méhu
Soutien technique & logistique : Manuel Goepfert

Contact : metmap@orbifly.com




SOURCES & CREDITS :

   NOAA